sensor_id;sensor_type;location;lat;lon;timestamp;pressure;altitude;pressure_sealevel;temperature;humidity
50636;BME280;36598;46.054;11.130;2023-03-16T00:00:43;99472.59;;;7.52;33.12
50636;BME280;36598;46.054;11.130;2023-03-16T00:03:09;99470.66;;;7.60;33.23
50636;BME280;36598;46.054;11.130;2023-03-16T00:05:34;99470.34;;;7.80;33.26
50636;BME280;36598;46.054;11.130;2023-03-16T00:07:59;99470.66;;;7.60;33.87
50636;BME280;36598;46.054;11.130;2023-03-16T00:10:25;99465.50;;;7.48;34.22
50636;BME280;36598;46.054;11.130;2023-03-16T00:12:54;99470.69;;;7.67;33.60
50636;BME280;36598;46.054;11.130;2023-03-16T00:15:20;99472.69;;;7.81;33.72
50636;BME280;36598;46.054;11.130;2023-03-16T00:17:46;99471.78;;;7.45;34.37
50636;BME280;36598;46.054;11.130;2023-03-16T00:20:13;99473.88;;;7.76;34.43
50636;BME280;36598;46.054;11.130;2023-03-16T00:22:38;99468.72;;;7.75;34.62
50636;BME280;36598;46.054;11.130;2023-03-16T00:25:04;99473.03;;;7.62;34.59
50636;BME280;36598;46.054;11.130;2023-03-16T00:27:29;99475.44;;;7.77;34.12
50636;BME280;36598;46.054;11.130;2023-03-16T00:29:54;99470.13;;;7.26;34.89
50636;BME280;36598;46.054;11.130;2023-03-16T00:32:21;99484.72;;;7.41;34.74
50636;BME280;36598;46.054;11.130;2023-03-16T00:34:47;99485.16;;;7.43;34.88
50636;BME280;36598;46.054;11.130;2023-03-16T00:37:13;99481.97;;;7.34;34.93
50636;BME280;36598;46.054;11.130;2023-03-16T00:39:42;99475.66;;;7.33;35.02
50636;BME280;36598;46.054;11.130;2023-03-16T00:42:09;99477.22;;;7.31;34.52
50636;BME280;36598;46.054;11.130;2023-03-16T00:44:36;99480.47;;;6.85;35.00
50636;BME280;36598;46.054;11.130;2023-03-16T00:47:03;99479.78;;;6.95;35.50
50636;BME280;36598;46.054;11.130;2023-03-16T00:49:32;99481.88;;;7.16;35.32
50636;BME280;36598;46.054;11.130;2023-03-16T00:52:00;99480.34;;;7.25;35.15
50636;BME280;36598;46.054;11.130;2023-03-16T00:54:25;99484.91;;;7.00;35.01
50636;BME280;36598;46.054;11.130;2023-03-16T00:56:51;99477.53;;;7.11;34.42
50636;BME280;36598;46.054;11.130;2023-03-16T00:59:16;99484.19;;;7.10;34.82
50636;BME280;36598;46.054;11.130;2023-03-16T01:01:44;99480.38;;;7.33;34.89
50636;BME280;36598;46.054;11.130;2023-03-16T01:04:10;99487.47;;;7.41;34.48
50636;BME280;36598;46.054;11.130;2023-03-16T01:06:36;99485.00;;;7.14;34.98
50636;BME280;36598;46.054;11.130;2023-03-16T01:09:01;99481.38;;;6.99;34.57
50636;BME280;36598;46.054;11.130;2023-03-16T01:11:29;99475.94;;;7.10;34.97
50636;BME280;36598;46.054;11.130;2023-03-16T01:13:57;99476.41;;;7.26;34.19
50636;BME280;36598;46.054;11.130;2023-03-16T01:16:23;99479.41;;;7.00;34.72
50636;BME280;36598;46.054;11.130;2023-03-16T01:18:48;99479.50;;;7.18;34.32
50636;BME280;36598;46.054;11.130;2023-03-16T01:21:14;99478.00;;;7.31;33.55
50636;BME280;36598;46.054;11.130;2023-03-16T01:23:39;99480.59;;;6.99;34.29
50636;BME280;36598;46.054;11.130;2023-03-16T01:26:04;99479.03;;;7.05;33.37
50636;BME280;36598;46.054;11.130;2023-03-16T01:28:30;99480.38;;;7.33;33.06
50636;BME280;36598;46.054;11.130;2023-03-16T01:31:03;99473.41;;;7.60;32.49
50636;BME280;36598;46.054;11.130;2023-03-16T01:33:29;99479.69;;;7.57;32.67
50636;BME280;36598;46.054;11.130;2023-03-16T01:36:05;99481.59;;;7.39;33.36
50636;BME280;36598;46.054;11.130;2023-03-16T01:38:31;99477.78;;;6.92;33.93
50636;BME280;36598;46.054;11.130;2023-03-16T01:40:57;99467.91;;;6.84;34.55
50636;BME280;36598;46.054;11.130;2023-03-16T01:43:25;99477.03;;;6.95;34.55
50636;BME280;36598;46.054;11.130;2023-03-16T01:48:28;99469.31;;;7.22;34.79
50636;BME280;36598;46.054;11.130;2023-03-16T01:51:01;99467.78;;;7.32;34.86
50636;BME280;36598;46.054;11.130;2023-03-16T01:53:27;99466.91;;;7.13;35.83
50636;BME280;36598;46.054;11.130;2023-03-16T01:55:52;99466.59;;;7.25;35.64
50636;BME280;36598;46.054;11.130;2023-03-16T01:58:19;99476.03;;;6.66;36.61
50636;BME280;36598;46.054;11.130;2023-03-16T02:00:45;99464.09;;;6.44;37.64
50636;BME280;36598;46.054;11.130;2023-03-16T02:03:12;99475.34;;;6.80;37.49
50636;BME280;36598;46.054;11.130;2023-03-16T02:05:43;99470.38;;;6.99;36.91
50636;BME280;36598;46.054;11.130;2023-03-16T02:08:09;99469.56;;;6.95;36.83
50636;BME280;36598;46.054;11.130;2023-03-16T02:10:36;99468.00;;;7.01;36.73
50636;BME280;36598;46.054;11.130;2023-03-16T02:13:02;99471.47;;;6.88;37.49
50636;BME280;36598;46.054;11.130;2023-03-16T02:15:28;99467.50;;;6.82;37.81
50636;BME280;36598;46.054;11.130;2023-03-16T02:17:53;99472.06;;;6.63;37.97
50636;BME280;36598;46.054;11.130;2023-03-16T02:23:17;99477.72;;;6.85;37.41
50636;BME280;36598;46.054;11.130;2023-03-16T02:30:51;99471.97;;;6.49;38.28
50636;BME280;36598;46.054;11.130;2023-03-16T02:33:17;99480.38;;;6.22;38.88
50636;BME280;36598;46.054;11.130;2023-03-16T02:35:43;99476.81;;;6.66;38.37
50636;BME280;36598;46.054;11.130;2023-03-16T02:38:09;99478.28;;;6.53;38.69
50636;BME280;36598;46.054;11.130;2023-03-16T02:40:34;99475.19;;;6.58;38.05
50636;BME280;36598;46.054;11.130;2023-03-16T02:45:32;99476.28;;;6.50;38.13
50636;BME280;36598;46.054;11.130;2023-03-16T02:48:01;99479.91;;;6.13;39.21
50636;BME280;36598;46.054;11.130;2023-03-16T02:50:29;99472.97;;;6.26;38.91
50636;BME280;36598;46.054;11.130;2023-03-16T02:52:54;99473.69;;;6.20;39.24
50636;BME280;36598;46.054;11.130;2023-03-16T02:55:20;99477.16;;;6.13;39.27
50636;BME280;36598;46.054;11.130;2023-03-16T02:57:46;99477.91;;;6.10;39.17
50636;BME280;36598;46.054;11.130;2023-03-16T03:00:11;99482.97;;;6.49;38.86
50636;BME280;36598;46.054;11.130;2023-03-16T03:02:38;99480.47;;;6.30;38.97
50636;BME280;36598;46.054;11.130;2023-03-16T03:05:03;99486.34;;;6.32;38.95
50636;BME280;36598;46.054;11.130;2023-03-16T03:07:29;99490.28;;;5.93;39.52
50636;BME280;36598;46.054;11.130;2023-03-16T03:09:56;99491.59;;;6.07;39.54
50636;BME280;36598;46.054;11.130;2023-03-16T03:12:21;99492.09;;;6.16;39.32
50636;BME280;36598;46.054;11.130;2023-03-16T03:14:46;99492.91;;;6.20;38.65
50636;BME280;36598;46.054;11.130;2023-03-16T03:17:12;99499.94;;;6.14;38.95
50636;BME280;36598;46.054;11.130;2023-03-16T03:19:38;99505.97;;;6.30;38.58
50636;BME280;36598;46.054;11.130;2023-03-16T03:22:04;99511.88;;;6.32;38.25
50636;BME280;36598;46.054;11.130;2023-03-16T03:24:30;99510.53;;;6.15;38.31
50636;BME280;36598;46.054;11.130;2023-03-16T03:26:56;99519.25;;;5.91;38.03
50636;BME280;36598;46.054;11.130;2023-03-16T03:29:24;99509.09;;;5.91;38.10
50636;BME280;36598;46.054;11.130;2023-03-16T03:31:49;99515.97;;;6.08;38.07
50636;BME280;36598;46.054;11.130;2023-03-16T03:34:15;99520.66;;;6.08;38.03
50636;BME280;36598;46.054;11.130;2023-03-16T03:36:40;99519.56;;;6.16;38.05
50636;BME280;36598;46.054;11.130;2023-03-16T03:39:05;99521.59;;;5.55;39.03
50636;BME280;36598;46.054;11.130;2023-03-16T03:41:31;99527.78;;;5.78;38.72
50636;BME280;36598;46.054;11.130;2023-03-16T03:43:57;99528.03;;;5.36;39.92
50636;BME280;36598;46.054;11.130;2023-03-16T03:46:22;99523.59;;;5.58;39.63
50636;BME280;36598;46.054;11.130;2023-03-16T03:48:48;99531.59;;;5.70;39.66
50636;BME280;36598;46.054;11.130;2023-03-16T03:51:13;99528.19;;;5.81;39.32
50636;BME280;36598;46.054;11.130;2023-03-16T03:53:38;99535.41;;;5.62;39.43
50636;BME280;36598;46.054;11.130;2023-03-16T03:56:03;99543.97;;;5.91;38.68
50636;BME280;36598;46.054;11.130;2023-03-16T03:58:29;99547.53;;;5.91;39.00
50636;BME280;36598;46.054;11.130;2023-03-16T04:00:54;99542.34;;;5.86;39.08
50636;BME280;36598;46.054;11.130;2023-03-16T04:03:19;99552.50;;;5.48;39.75
50636;BME280;36598;46.054;11.130;2023-03-16T04:05:45;99557.53;;;5.76;39.18
50636;BME280;36598;46.054;11.130;2023-03-16T04:08:11;99556.09;;;5.56;39.48
50636;BME280;36598;46.054;11.130;2023-03-16T04:10:36;99555.31;;;5.86;39.21
50636;BME280;36598;46.054;11.130;2023-03-16T04:13:01;99545.38;;;5.74;39.81
50636;BME280;36598;46.054;11.130;2023-03-16T04:15:26;99554.19;;;5.60;39.83
50636;BME280;36598;46.054;11.130;2023-03-16T04:17:52;99552.16;;;5.84;38.71
50636;BME280;36598;46.054;11.130;2023-03-16T04:20:17;99564.22;;;5.75;39.22
50636;BME280;36598;46.054;11.130;2023-03-16T04:22:46;99558.56;;;5.65;39.45
50636;BME280;36598;46.054;11.130;2023-03-16T04:25:12;99567.28;;;5.70;39.67
50636;BME280;36598;46.054;11.130;2023-03-16T04:27:39;99559.50;;;5.46;39.03
50636;BME280;36598;46.054;11.130;2023-03-16T04:30:05;99555.13;;;5.71;39.67
50636;BME280;36598;46.054;11.130;2023-03-16T04:32:34;99562.59;;;5.41;40.66
50636;BME280;36598;46.054;11.130;2023-03-16T04:34:59;99559.09;;;5.44;40.64
50636;BME280;36598;46.054;11.130;2023-03-16T04:37:25;99569.00;;;5.52;40.16
50636;BME280;36598;46.054;11.130;2023-03-16T04:39:51;99561.88;;;5.47;39.90
50636;BME280;36598;46.054;11.130;2023-03-16T04:42:16;99569.66;;;5.42;39.97
50636;BME280;36598;46.054;11.130;2023-03-16T04:44:41;99574.28;;;5.38;40.00
50636;BME280;36598;46.054;11.130;2023-03-16T04:47:10;99574.34;;;5.41;39.74
50636;BME280;36598;46.054;11.130;2023-03-16T04:49:35;99569.13;;;5.33;40.81
50636;BME280;36598;46.054;11.130;2023-03-16T04:52:01;99576.38;;;5.48;40.61
50636;BME280;36598;46.054;11.130;2023-03-16T04:54:26;99577.78;;;5.08;41.44
50636;BME280;36598;46.054;11.130;2023-03-16T04:56:52;99574.22;;;5.34;41.11
50636;BME280;36598;46.054;11.130;2023-03-16T04:59:17;99583.81;;;5.44;41.37
50636;BME280;36598;46.054;11.130;2023-03-16T05:01:50;99582.50;;;5.64;40.48
50636;BME280;36598;46.054;11.130;2023-03-16T05:04:16;99583.47;;;5.49;41.51
50636;BME280;36598;46.054;11.130;2023-03-16T05:06:41;99590.38;;;5.13;41.80
50636;BME280;36598;46.054;11.130;2023-03-16T05:09:07;99590.13;;;5.21;42.04
50636;BME280;36598;46.054;11.130;2023-03-16T05:11:35;99590.44;;;5.16;41.85
50636;BME280;36598;46.054;11.130;2023-03-16T05:14:00;99592.84;;;5.21;41.24
50636;BME280;36598;46.054;11.130;2023-03-16T05:16:29;99595.38;;;5.07;42.00
50636;BME280;36598;46.054;11.130;2023-03-16T05:18:58;99586.25;;;5.26;40.79
50636;BME280;36598;46.054;11.130;2023-03-16T05:21:23;99588.22;;;5.25;41.01
50636;BME280;36598;46.054;11.130;2023-03-16T05:23:49;99593.13;;;5.13;41.43
50636;BME280;36598;46.054;11.130;2023-03-16T05:26:14;99597.50;;;5.17;41.79
50636;BME280;36598;46.054;11.130;2023-03-16T05:28:39;99599.09;;;5.18;41.92
50636;BME280;36598;46.054;11.130;2023-03-16T05:31:06;99600.78;;;5.26;41.85
50636;BME280;36598;46.054;11.130;2023-03-16T05:33:31;99608.91;;;4.96;42.99
50636;BME280;36598;46.054;11.130;2023-03-16T05:35:57;99612.13;;;4.75;42.68
50636;BME280;36598;46.054;11.130;2023-03-16T05:38:22;99615.66;;;5.25;41.90
50636;BME280;36598;46.054;11.130;2023-03-16T05:40:48;99610.88;;;5.19;42.64
50636;BME280;36598;46.054;11.130;2023-03-16T05:43:17;99609.31;;;5.21;42.28
50636;BME280;36598;46.054;11.130;2023-03-16T05:45:42;99616.97;;;4.86;43.70
50636;BME280;36598;46.054;11.130;2023-03-16T05:48:07;99614.13;;;5.01;42.92
50636;BME280;36598;46.054;11.130;2023-03-16T05:50:33;99619.66;;;4.82;43.16
50636;BME280;36598;46.054;11.130;2023-03-16T05:52:58;99627.63;;;4.91;43.16
50636;BME280;36598;46.054;11.130;2023-03-16T05:55:23;99621.78;;;5.15;42.78
50636;BME280;36598;46.054;11.130;2023-03-16T05:57:49;99626.22;;;5.00;42.64
50636;BME280;36598;46.054;11.130;2023-03-16T06:00:15;99635.31;;;5.05;43.22
50636;BME280;36598;46.054;11.130;2023-03-16T06:02:45;99643.94;;;5.30;42.56
50636;BME280;36598;46.054;11.130;2023-03-16T06:05:13;99644.63;;;5.23;42.34
50636;BME280;36598;46.054;11.130;2023-03-16T06:07:39;99658.59;;;4.49;44.00
50636;BME280;36598;46.054;11.130;2023-03-16T06:10:05;99660.06;;;4.23;44.54
50636;BME280;36598;46.054;11.130;2023-03-16T06:12:31;99651.53;;;4.67;43.88
50636;BME280;36598;46.054;11.130;2023-03-16T06:14:58;99659.75;;;4.48;43.80
50636;BME280;36598;46.054;11.130;2023-03-16T06:17:23;99664.22;;;4.56;42.89
50636;BME280;36598;46.054;11.130;2023-03-16T06:19:49;99659.91;;;5.01;42.49
50636;BME280;36598;46.054;11.130;2023-03-16T06:22:14;99663.34;;;5.17;42.29
50636;BME280;36598;46.054;11.130;2023-03-16T06:24:39;99667.94;;;5.10;42.78
50636;BME280;36598;46.054;11.130;2023-03-16T06:27:05;99671.06;;;5.35;42.64
50636;BME280;36598;46.054;11.130;2023-03-16T06:29:30;99676.22;;;5.63;41.70
50636;BME280;36598;46.054;11.130;2023-03-16T06:31:55;99675.63;;;5.50;41.85
50636;BME280;36598;46.054;11.130;2023-03-16T06:34:21;99677.38;;;5.62;41.80
50636;BME280;36598;46.054;11.130;2023-03-16T06:36:46;99690.94;;;5.05;42.68
50636;BME280;36598;46.054;11.130;2023-03-16T06:39:12;99696.81;;;5.03;43.52
50636;BME280;36598;46.054;11.130;2023-03-16T06:41:38;99701.84;;;3.82;45.45
50636;BME280;36598;46.054;11.130;2023-03-16T06:44:04;99705.59;;;3.93;45.04
50636;BME280;36598;46.054;11.130;2023-03-16T06:46:30;99703.25;;;4.30;44.78
50636;BME280;36598;46.054;11.130;2023-03-16T06:48:57;99704.69;;;4.63;43.47
50636;BME280;36598;46.054;11.130;2023-03-16T06:51:22;99704.38;;;5.10;42.44
50636;BME280;36598;46.054;11.130;2023-03-16T06:53:47;99709.56;;;5.15;42.60
50636;BME280;36598;46.054;11.130;2023-03-16T06:56:13;99704.56;;;5.44;42.50
50636;BME280;36598;46.054;11.130;2023-03-16T06:58:38;99711.16;;;5.66;42.21
50636;BME280;36598;46.054;11.130;2023-03-16T07:01:04;99707.72;;;5.99;41.49
50636;BME280;36598;46.054;11.130;2023-03-16T07:03:29;99720.25;;;8.52;38.24
50636;BME280;36598;46.054;11.130;2023-03-16T07:05:55;99703.97;;;17.77;24.47
50636;BME280;36598;46.054;11.130;2023-03-16T07:08:20;99690.97;;;21.98;18.91
50636;BME280;36598;46.054;11.130;2023-03-16T07:10:46;99694.91;;;24.30;16.05
50636;BME280;36598;46.054;11.130;2023-03-16T07:13:11;99692.63;;;25.12;14.89
50636;BME280;36598;46.054;11.130;2023-03-16T07:15:36;99696.13;;;26.41;14.12
50636;BME280;36598;46.054;11.130;2023-03-16T07:18:02;99698.00;;;28.67;12.34
50636;BME280;36598;46.054;11.130;2023-03-16T07:20:27;99690.69;;;31.13;10.60
50636;BME280;36598;46.054;11.130;2023-03-16T07:22:55;99694.28;;;30.31;11.08
50636;BME280;36598;46.054;11.130;2023-03-16T07:25:20;99698.47;;;30.30;10.47
50636;BME280;36598;46.054;11.130;2023-03-16T07:27:46;99700.25;;;31.61;9.83
50636;BME280;36598;46.054;11.130;2023-03-16T07:30:11;99700.09;;;29.57;10.66
50636;BME280;36598;46.054;11.130;2023-03-16T07:32:38;99700.44;;;31.37;9.47
50636;BME280;36598;46.054;11.130;2023-03-16T07:35:03;99706.47;;;32.26;8.82
50636;BME280;36598;46.054;11.130;2023-03-16T07:37:29;99706.59;;;32.21;8.92
50636;BME280;36598;46.054;11.130;2023-03-16T07:39:54;99707.25;;;33.65;8.35
50636;BME280;36598;46.054;11.130;2023-03-16T07:42:20;99711.22;;;33.91;8.03
50636;BME280;36598;46.054;11.130;2023-03-16T07:44:46;99711.16;;;33.76;8.22
50636;BME280;36598;46.054;11.130;2023-03-16T07:47:12;99700.25;;;34.10;7.36
50636;BME280;36598;46.054;11.130;2023-03-16T07:49:37;99703.94;;;35.70;6.74
50636;BME280;36598;46.054;11.130;2023-03-16T07:52:03;99707.06;;;35.18;7.15
50636;BME280;36598;46.054;11.130;2023-03-16T07:54:28;99700.84;;;35.83;6.83
50636;BME280;36598;46.054;11.130;2023-03-16T07:56:53;99699.66;;;34.56;7.44
50636;BME280;36598;46.054;11.130;2023-03-16T07:59:19;99700.69;;;34.30;6.99
50636;BME280;36598;46.054;11.130;2023-03-16T08:01:45;99697.31;;;36.55;6.67
50636;BME280;36598;46.054;11.130;2023-03-16T08:04:10;99693.88;;;36.09;6.19
50636;BME280;36598;46.054;11.130;2023-03-16T08:06:36;99700.81;;;35.91;6.42
50636;BME280;36598;46.054;11.130;2023-03-16T08:09:02;99698.19;;;36.66;6.05
50636;BME280;36598;46.054;11.130;2023-03-16T08:11:27;99705.78;;;37.36;5.86
50636;BME280;36598;46.054;11.130;2023-03-16T08:13:52;99694.88;;;34.58;6.76
50636;BME280;36598;46.054;11.130;2023-03-16T08:16:22;99696.88;;;35.09;6.49
50636;BME280;36598;46.054;11.130;2023-03-16T08:18:47;99701.28;;;35.18;6.45
50636;BME280;36598;46.054;11.130;2023-03-16T08:21:14;99703.50;;;35.88;6.11
50636;BME280;36598;46.054;11.130;2023-03-16T08:23:41;99703.88;;;36.81;5.62
50636;BME280;36598;46.054;11.130;2023-03-16T08:26:08;99697.97;;;34.68;7.09
50636;BME280;36598;46.054;11.130;2023-03-16T08:28:34;99699.19;;;36.28;5.89
50636;BME280;36598;46.054;11.130;2023-03-16T08:31:00;99689.72;;;35.79;6.38
50636;BME280;36598;46.054;11.130;2023-03-16T08:33:25;99697.78;;;35.81;6.12
50636;BME280;36598;46.054;11.130;2023-03-16T08:35:52;99690.56;;;36.60;5.55
50636;BME280;36598;46.054;11.130;2023-03-16T08:38:17;99689.91;;;36.37;5.84
50636;BME280;36598;46.054;11.130;2023-03-16T08:40:43;99685.31;;;34.12;6.64
50636;BME280;36598;46.054;11.130;2023-03-16T08:43:15;99686.69;;;34.19;6.68
50636;BME280;36598;46.054;11.130;2023-03-16T08:45:43;99683.09;;;36.09;6.11
50636;BME280;36598;46.054;11.130;2023-03-16T08:48:08;99686.41;;;33.15;7.61
50636;BME280;36598;46.054;11.130;2023-03-16T08:50:38;99693.72;;;28.50;9.48
50636;BME280;36598;46.054;11.130;2023-03-16T08:53:03;99702.41;;;26.74;10.93
50636;BME280;36598;46.054;11.130;2023-03-16T08:55:28;99694.16;;;26.87;10.99
50636;BME280;36598;46.054;11.130;2023-03-16T08:57:53;99704.84;;;25.24;11.54
50636;BME280;36598;46.054;11.130;2023-03-16T09:00:19;99701.66;;;24.85;11.92
50636;BME280;36598;46.054;11.130;2023-03-16T09:02:44;99699.34;;;23.90;13.03
50636;BME280;36598;46.054;11.130;2023-03-16T09:05:12;99701.91;;;22.88;13.28
50636;BME280;36598;46.054;11.130;2023-03-16T09:07:38;99706.31;;;22.21;14.11
50636;BME280;36598;46.054;11.130;2023-03-16T09:10:04;99708.09;;;20.95;14.34
50636;BME280;36598;46.054;11.130;2023-03-16T09:12:31;99705.97;;;20.44;14.83
50636;BME280;36598;46.054;11.130;2023-03-16T09:14:58;99710.88;;;19.08;15.84
50636;BME280;36598;46.054;11.130;2023-03-16T09:17:24;99715.34;;;21.20;14.77
50636;BME280;36598;46.054;11.130;2023-03-16T09:19:49;99709.63;;;21.71;14.70
50636;BME280;36598;46.054;11.130;2023-03-16T09:22:15;99710.34;;;22.73;13.79
50636;BME280;36598;46.054;11.130;2023-03-16T09:24:40;99717.00;;;23.85;12.94
50636;BME280;36598;46.054;11.130;2023-03-16T09:27:06;99711.16;;;23.54;12.61
50636;BME280;36598;46.054;11.130;2023-03-16T09:29:32;99702.56;;;24.24;12.74
50636;BME280;36598;46.054;11.130;2023-03-16T09:31:57;99707.16;;;22.81;13.94
50636;BME280;36598;46.054;11.130;2023-03-16T09:34:22;99706.16;;;22.39;14.36
50636;BME280;36598;46.054;11.130;2023-03-16T09:36:47;99697.31;;;23.20;13.99
50636;BME280;36598;46.054;11.130;2023-03-16T09:39:13;99691.56;;;23.85;13.45
50636;BME280;36598;46.054;11.130;2023-03-16T09:46:51;99688.38;;;23.42;13.55
50636;BME280;36598;46.054;11.130;2023-03-16T09:49:20;99676.84;;;23.61;13.26
50636;BME280;36598;46.054;11.130;2023-03-16T09:56:44;99673.78;;;23.09;13.72
50636;BME280;36598;46.054;11.130;2023-03-16T09:59:12;99664.38;;;24.34;12.70
50636;BME280;36598;46.054;11.130;2023-03-16T10:06:52;99659.63;;;23.79;13.58
50636;BME280;36598;46.054;11.130;2023-03-16T10:09:32;99661.28;;;23.30;13.54
50636;BME280;36598;46.054;11.130;2023-03-16T10:12:00;99663.47;;;23.41;12.91
50636;BME280;36598;46.054;11.130;2023-03-16T10:14:32;99658.56;;;23.77;13.36
50636;BME280;36598;46.054;11.130;2023-03-16T10:19:50;99659.09;;;22.75;13.87
50636;BME280;36598;46.054;11.130;2023-03-16T10:22:22;99648.75;;;23.16;13.08
50636;BME280;36598;46.054;11.130;2023-03-16T10:27:31;99653.25;;;21.23;13.44
50636;BME280;36598;46.054;11.130;2023-03-16T10:29:57;99642.97;;;22.46;12.92
50636;BME280;36598;46.054;11.130;2023-03-16T10:32:28;99643.59;;;23.15;12.78
50636;BME280;36598;46.054;11.130;2023-03-16T10:34:57;99643.84;;;23.32;12.57
50636;BME280;36598;46.054;11.130;2023-03-16T10:37:23;99650.31;;;21.51;13.31
50636;BME280;36598;46.054;11.130;2023-03-16T10:39:49;99644.50;;;22.47;13.32
50636;BME280;36598;46.054;11.130;2023-03-16T10:42:16;99635.31;;;20.79;14.04
50636;BME280;36598;46.054;11.130;2023-03-16T10:44:42;99632.31;;;20.03;14.65
50636;BME280;36598;46.054;11.130;2023-03-16T10:47:14;99628.78;;;22.40;13.85
50636;BME280;36598;46.054;11.130;2023-03-16T10:49:41;99625.72;;;23.03;13.51
50636;BME280;36598;46.054;11.130;2023-03-16T10:55:26;99625.16;;;20.81;14.77
50636;BME280;36598;46.054;11.130;2023-03-16T10:57:32;99629.41;;;21.43;14.52
50636;BME280;36598;46.054;11.130;2023-03-16T10:59:59;99622.75;;;21.55;14.18
50636;BME280;36598;46.054;11.130;2023-03-16T11:02:31;99616.72;;;20.11;15.23
50636;BME280;36598;46.054;11.130;2023-03-16T11:04:57;99623.88;;;21.24;14.82
50636;BME280;36598;46.054;11.130;2023-03-16T11:07:22;99618.91;;;21.67;14.27
50636;BME280;36598;46.054;11.130;2023-03-16T11:09:52;99623.88;;;22.11;14.76
50636;BME280;36598;46.054;11.130;2023-03-16T11:14:44;99607.25;;;21.74;16.88
50636;BME280;36598;46.054;11.130;2023-03-16T11:17:11;99606.88;;;20.76;19.85
50636;BME280;36598;46.054;11.130;2023-03-16T11:19:40;99614.38;;;21.46;15.92
50636;BME280;36598;46.054;11.130;2023-03-16T11:27:09;99597.38;;;20.04;16.79
50636;BME280;36598;46.054;11.130;2023-03-16T11:29:50;99592.81;;;19.24;17.73
50636;BME280;36598;46.054;11.130;2023-03-16T11:32:20;99588.97;;;18.90;18.38
50636;BME280;36598;46.054;11.130;2023-03-16T11:34:47;99585.63;;;18.73;18.77
50636;BME280;36598;46.054;11.130;2023-03-16T11:50:57;99554.50;;;18.71;19.57
50636;BME280;36598;46.054;11.130;2023-03-16T11:53:40;99550.22;;;18.26;19.69
50636;BME280;36598;46.054;11.130;2023-03-16T11:56:22;99546.75;;;18.22;20.03
50636;BME280;36598;46.054;11.130;2023-03-16T12:12:03;99510.66;;;18.56;20.92
50636;BME280;36598;46.054;11.130;2023-03-16T12:17:36;99506.34;;;18.01;20.65
50636;BME280;36598;46.054;11.130;2023-03-16T12:20:03;99499.75;;;18.58;20.17
50636;BME280;36598;46.054;11.130;2023-03-16T12:22:41;99490.69;;;19.40;20.41
50636;BME280;36598;46.054;11.130;2023-03-16T12:25:19;99489.78;;;19.43;19.57
50636;BME280;36598;46.054;11.130;2023-03-16T12:27:56;99486.34;;;19.30;19.77
50636;BME280;36598;46.054;11.130;2023-03-16T12:33:09;99478.19;;;19.87;18.79
50636;BME280;36598;46.054;11.130;2023-03-16T12:40:45;99475.59;;;19.19;20.17
50636;BME280;36598;46.054;11.130;2023-03-16T12:43:30;99465.31;;;19.34;19.08
50636;BME280;36598;46.054;11.130;2023-03-16T12:46:10;99464.63;;;18.25;20.72
50636;BME280;36598;46.054;11.130;2023-03-16T12:51:09;99467.88;;;18.24;20.49
50636;BME280;36598;46.054;11.130;2023-03-16T12:53:42;99463.75;;;18.38;20.73
50636;BME280;36598;46.054;11.130;2023-03-16T12:56:09;99462.00;;;17.12;21.03
50636;BME280;36598;46.054;11.130;2023-03-16T12:58:38;99468.69;;;17.27;21.29
50636;BME280;36598;46.054;11.130;2023-03-16T13:01:04;99466.94;;;16.10;22.02
50636;BME280;36598;46.054;11.130;2023-03-16T13:03:32;99456.88;;;15.87;22.95
50636;BME280;36598;46.054;11.130;2023-03-16T13:05:57;99449.41;;;17.30;21.66
50636;BME280;36598;46.054;11.130;2023-03-16T13:08:25;99463.28;;;16.98;22.08
50636;BME280;36598;46.054;11.130;2023-03-16T13:11:01;99456.19;;;16.85;22.61
50636;BME280;36598;46.054;11.130;2023-03-16T13:13:27;99461.81;;;15.53;23.97
50636;BME280;36598;46.054;11.130;2023-03-16T13:16:04;99453.75;;;16.48;23.96
50636;BME280;36598;46.054;11.130;2023-03-16T13:18:40;99457.59;;;17.02;23.25
50636;BME280;36598;46.054;11.130;2023-03-16T13:23:56;99446.94;;;17.10;22.45
50636;BME280;36598;46.054;11.130;2023-03-16T13:26:41;99437.31;;;17.33;22.32
50636;BME280;36598;46.054;11.130;2023-03-16T13:29:31;99434.28;;;16.70;21.92
50636;BME280;36598;46.054;11.130;2023-03-16T13:31:58;99436.09;;;16.77;22.76
50636;BME280;36598;46.054;11.130;2023-03-16T13:34:30;99428.19;;;16.50;23.55
50636;BME280;36598;46.054;11.130;2023-03-16T13:36:56;99424.28;;;16.22;23.40
50636;BME280;36598;46.054;11.130;2023-03-16T13:39:29;99430.53;;;16.39;23.07
50636;BME280;36598;46.054;11.130;2023-03-16T13:41:59;99416.06;;;16.78;23.23
50636;BME280;36598;46.054;11.130;2023-03-16T13:44:26;99405.38;;;16.99;22.97
50636;BME280;36598;46.054;11.130;2023-03-16T13:46:51;99408.25;;;17.08;22.86
50636;BME280;36598;46.054;11.130;2023-03-16T13:49:17;99415.81;;;16.86;23.27
50636;BME280;36598;46.054;11.130;2023-03-16T13:51:43;99405.38;;;17.21;22.55
50636;BME280;36598;46.054;11.130;2023-03-16T13:54:23;99401.16;;;17.16;23.12
50636;BME280;36598;46.054;11.130;2023-03-16T13:56:49;99400.22;;;16.63;23.22
50636;BME280;36598;46.054;11.130;2023-03-16T13:59:16;99396.84;;;16.81;23.45
50636;BME280;36598;46.054;11.130;2023-03-16T14:01:42;99400.06;;;16.32;24.08
50636;BME280;36598;46.054;11.130;2023-03-16T14:04:09;99400.88;;;16.19;23.35
50636;BME280;36598;46.054;11.130;2023-03-16T14:06:37;99400.16;;;16.53;23.20
50636;BME280;36598;46.054;11.130;2023-03-16T14:09:05;99384.19;;;16.89;22.37
50636;BME280;36598;46.054;11.130;2023-03-16T14:11:32;99379.97;;;16.84;22.77
50636;BME280;36598;46.054;11.130;2023-03-16T14:13:57;99395.00;;;16.39;23.65
50636;BME280;36598;46.054;11.130;2023-03-16T14:16:27;99384.38;;;16.47;24.27
50636;BME280;36598;46.054;11.130;2023-03-16T14:18:56;99386.75;;;16.96;22.94
50636;BME280;36598;46.054;11.130;2023-03-16T14:21:23;99385.16;;;16.95;23.63
50636;BME280;36598;46.054;11.130;2023-03-16T14:23:51;99393.59;;;17.04;23.34